sensor_id;sensor_type;location;lat;lon;timestamp;temperature;humidity
1429;DHT22;708;51.442;7.016;2024-02-23T00:01:54;7.90;99.90
1429;DHT22;708;51.442;7.016;2024-02-23T00:04:20;7.90;99.90
1429;DHT22;708;51.442;7.016;2024-02-23T00:06:48;7.90;99.90
1429;DHT22;708;51.442;7.016;2024-02-23T00:09:16;7.90;99.90
1429;DHT22;708;51.442;7.016;2024-02-23T00:11:43;7.80;99.90
1429;DHT22;708;51.442;7.016;2024-02-23T00:14:10;7.90;99.90
1429;DHT22;708;51.442;7.016;2024-02-23T00:21:37;7.80;99.90
1429;DHT22;708;51.442;7.016;2024-02-23T00:24:05;7.90;99.90
1429;DHT22;708;51.442;7.016;2024-02-23T00:26:32;8.00;99.90
1429;DHT22;708;51.442;7.016;2024-02-23T00:28:59;8.00;99.90
1429;DHT22;708;51.442;7.016;2024-02-23T00:31:26;8.00;99.90
1429;DHT22;708;51.442;7.016;2024-02-23T00:33:52;7.90;99.90
1429;DHT22;708;51.442;7.016;2024-02-23T00:48:37;8.20;99.90
1429;DHT22;708;51.442;7.016;2024-02-23T03:22:02;7.70;99.90
1429;DHT22;708;51.442;7.016;2024-02-23T03:24:29;7.80;99.90
1429;DHT22;708;51.442;7.016;2024-02-23T03:26:56;7.80;99.90
1429;DHT22;708;51.442;7.016;2024-02-23T03:29:22;7.80;99.90
1429;DHT22;708;51.442;7.016;2024-02-23T03:31:49;7.70;99.90
1429;DHT22;708;51.442;7.016;2024-02-23T03:34:18;7.80;99.90
1429;DHT22;708;51.442;7.016;2024-02-23T03:36:44;7.80;99.90
1429;DHT22;708;51.442;7.016;2024-02-23T03:39:11;7.80;99.90
1429;DHT22;708;51.442;7.016;2024-02-23T03:41:38;7.80;99.90
1429;DHT22;708;51.442;7.016;2024-02-23T03:44:05;7.80;99.90
1429;DHT22;708;51.442;7.016;2024-02-23T03:46:31;7.90;99.90
1429;DHT22;708;51.442;7.016;2024-02-23T03:49:00;7.90;99.90
1429;DHT22;708;51.442;7.016;2024-02-23T03:51:28;7.90;99.90
1429;DHT22;708;51.442;7.016;2024-02-23T03:53:54;7.90;99.90
1429;DHT22;708;51.442;7.016;2024-02-23T03:56:21;8.00;99.90
1429;DHT22;708;51.442;7.016;2024-02-23T03:58:48;8.00;99.90
1429;DHT22;708;51.442;7.016;2024-02-23T04:01:15;8.00;99.90
1429;DHT22;708;51.442;7.016;2024-02-23T04:03:41;8.10;99.90
1429;DHT22;708;51.442;7.016;2024-02-23T04:06:08;8.10;99.90
1429;DHT22;708;51.442;7.016;2024-02-23T04:08:35;8.10;99.90
1429;DHT22;708;51.442;7.016;2024-02-23T04:11:03;8.20;99.90
1429;DHT22;708;51.442;7.016;2024-02-23T04:15:57;8.10;99.90
1429;DHT22;708;51.442;7.016;2024-02-23T04:18:26;8.30;99.90
1429;DHT22;708;51.442;7.016;2024-02-23T04:30:46;8.00;99.90
1429;DHT22;708;51.442;7.016;2024-02-23T04:33:12;8.00;99.90
1429;DHT22;708;51.442;7.016;2024-02-23T04:35:39;8.10;99.90
1429;DHT22;708;51.442;7.016;2024-02-23T04:40:33;8.00;99.90
1429;DHT22;708;51.442;7.016;2024-02-23T04:43:02;8.00;99.90
1429;DHT22;708;51.442;7.016;2024-02-23T04:45:29;8.00;99.90
1429;DHT22;708;51.442;7.016;2024-02-23T04:52:51;8.00;99.90
1429;DHT22;708;51.442;7.016;2024-02-23T05:00:15;7.90;99.90
1429;DHT22;708;51.442;7.016;2024-02-23T05:07:38;7.90;99.90
1429;DHT22;708;51.442;7.016;2024-02-23T05:10:05;8.00;99.90
1429;DHT22;708;51.442;7.016;2024-02-23T05:12:32;7.80;99.90
1429;DHT22;708;51.442;7.016;2024-02-23T05:14:59;7.90;99.90
1429;DHT22;708;51.442;7.016;2024-02-23T05:17:27;7.80;99.90
1429;DHT22;708;51.442;7.016;2024-02-23T07:43:52;14.50;99.90
1429;DHT22;708;51.442;7.016;2024-02-23T08:13:42;15.10;94.60
1429;DHT22;708;51.442;7.016;2024-02-23T08:16:08;15.10;97.50
1429;DHT22;708;51.442;7.016;2024-02-23T08:18:36;16.40;96.60
1429;DHT22;708;51.442;7.016;2024-02-23T08:21:03;16.90;94.10
1429;DHT22;708;51.442;7.016;2024-02-23T08:23:31;16.60;92.80
1429;DHT22;708;51.442;7.016;2024-02-23T08:25:58;15.70;94.30
1429;DHT22;708;51.442;7.016;2024-02-23T08:28:27;14.40;98.80
1429;DHT22;708;51.442;7.016;2024-02-23T08:30:54;13.30;99.90
1429;DHT22;708;51.442;7.016;2024-02-23T08:33:20;12.90;99.90
1429;DHT22;708;51.442;7.016;2024-02-23T08:35:47;12.80;62.50
1429;DHT22;708;51.442;7.016;2024-02-23T08:38:15;12.40;99.90
1429;DHT22;708;51.442;7.016;2024-02-23T08:40:41;12.00;99.90
1429;DHT22;708;51.442;7.016;2024-02-23T09:20:18;10.90;99.90
1429;DHT22;708;51.442;7.016;2024-02-23T09:50:04;11.00;99.90
1429;DHT22;708;51.442;7.016;2024-02-23T09:52:32;11.20;99.90
1429;DHT22;708;51.442;7.016;2024-02-23T09:55:00;11.20;1.00
1429;DHT22;708;51.442;7.016;2024-02-23T10:09:46;11.60;1.00
1429;DHT22;708;51.442;7.016;2024-02-23T11:24:32;11.30;1.00
1429;DHT22;708;51.442;7.016;2024-02-23T11:26:59;11.40;1.00
1429;DHT22;708;51.442;7.016;2024-02-23T11:29:33;11.40;1.00
1429;DHT22;708;51.442;7.016;2024-02-23T12:16:43;11.10;99.90
1429;DHT22;708;51.442;7.016;2024-02-23T13:28:36;11.70;1.00
1429;DHT22;708;51.442;7.016;2024-02-23T14:47:50;12.50;99.90
1429;DHT22;708;51.442;7.016;2024-02-23T14:50:16;12.60;99.90
1429;DHT22;708;51.442;7.016;2024-02-23T15:32:21;11.90;99.90
1429;DHT22;708;51.442;7.016;2024-02-23T15:34:48;11.90;51.80
1429;DHT22;708;51.442;7.016;2024-02-23T15:37:14;11.80;99.90
1429;DHT22;708;51.442;7.016;2024-02-23T15:39:42;11.90;9.50
1429;DHT22;708;51.442;7.016;2024-02-23T15:42:09;11.70;99.90
1429;DHT22;708;51.442;7.016;2024-02-23T15:44:36;11.80;99.90
1429;DHT22;708;51.442;7.016;2024-02-23T15:47:03;11.70;1.00
1429;DHT22;708;51.442;7.016;2024-02-23T15:49:30;11.70;99.50
1429;DHT22;708;51.442;7.016;2024-02-23T15:51:58;11.60;99.90
1429;DHT22;708;51.442;7.016;2024-02-23T15:54:25;11.40;1.00
1429;DHT22;708;51.442;7.016;2024-02-23T15:59:21;11.20;99.90
1429;DHT22;708;51.442;7.016;2024-02-23T16:01:48;11.30;1.00
1429;DHT22;708;51.442;7.016;2024-02-23T16:04:14;11.30;99.90
1429;DHT22;708;51.442;7.016;2024-02-23T16:06:41;11.30;99.90
1429;DHT22;708;51.442;7.016;2024-02-23T16:09:08;11.20;1.00
1429;DHT22;708;51.442;7.016;2024-02-23T16:11:35;11.10;99.90
1429;DHT22;708;51.442;7.016;2024-02-23T16:14:04;11.00;99.90
1429;DHT22;708;51.442;7.016;2024-02-23T16:16:31;10.80;68.60
1429;DHT22;708;51.442;7.016;2024-02-23T16:18:58;10.80;99.90
1429;DHT22;708;51.442;7.016;2024-02-23T16:21:24;10.70;99.90
1429;DHT22;708;51.442;7.016;2024-02-23T16:23:51;10.70;1.00
1429;DHT22;708;51.442;7.016;2024-02-23T16:26:18;10.60;99.90
1429;DHT22;708;51.442;7.016;2024-02-23T16:28:45;10.70;1.00
1429;DHT22;708;51.442;7.016;2024-02-23T16:31:13;10.60;39.70
1429;DHT22;708;51.442;7.016;2024-02-23T16:33:39;10.60;1.00
1429;DHT22;708;51.442;7.016;2024-02-23T16:36:06;10.60;62.30
1429;DHT22;708;51.442;7.016;2024-02-23T16:38:33;10.60;32.80
1429;DHT22;708;51.442;7.016;2024-02-23T16:41:00;10.60;99.90
1429;DHT22;708;51.442;7.016;2024-02-23T16:43:27;10.60;99.90
1429;DHT22;708;51.442;7.016;2024-02-23T16:45:53;10.60;99.90
1429;DHT22;708;51.442;7.016;2024-02-23T16:48:21;10.60;1.00
1429;DHT22;708;51.442;7.016;2024-02-23T16:50:48;10.60;1.00
1429;DHT22;708;51.442;7.016;2024-02-23T16:53:15;10.50;99.90
1429;DHT22;708;51.442;7.016;2024-02-23T16:55:44;10.20;99.90
1429;DHT22;708;51.442;7.016;2024-02-23T16:58:10;10.00;1.00
1429;DHT22;708;51.442;7.016;2024-02-23T17:00:37;9.80;1.00
1429;DHT22;708;51.442;7.016;2024-02-23T17:03:05;9.60;1.00
1429;DHT22;708;51.442;7.016;2024-02-23T17:05:34;9.50;1.00
1429;DHT22;708;51.442;7.016;2024-02-23T17:08:00;9.50;1.00
1429;DHT22;708;51.442;7.016;2024-02-23T17:10:28;9.40;1.00
1429;DHT22;708;51.442;7.016;2024-02-23T17:12:55;9.40;1.00
1429;DHT22;708;51.442;7.016;2024-02-23T17:15:21;9.40;1.00
1429;DHT22;708;51.442;7.016;2024-02-23T17:17:48;9.30;1.00
1429;DHT22;708;51.442;7.016;2024-02-23T17:20:15;9.40;1.00
1429;DHT22;708;51.442;7.016;2024-02-23T17:22:44;9.40;1.00
1429;DHT22;708;51.442;7.016;2024-02-23T17:25:12;9.30;1.00
1429;DHT22;708;51.442;7.016;2024-02-23T17:27:40;9.30;1.00
1429;DHT22;708;51.442;7.016;2024-02-23T17:30:08;9.30;1.00
1429;DHT22;708;51.442;7.016;2024-02-23T17:32:35;9.30;1.00
1429;DHT22;708;51.442;7.016;2024-02-23T17:35:02;9.30;1.00
1429;DHT22;708;51.442;7.016;2024-02-23T17:37:29;9.30;1.00
1429;DHT22;708;51.442;7.016;2024-02-23T17:39:57;9.30;1.00
1429;DHT22;708;51.442;7.016;2024-02-23T17:42:24;9.30;1.00
1429;DHT22;708;51.442;7.016;2024-02-23T17:44:51;9.30;1.00
1429;DHT22;708;51.442;7.016;2024-02-23T17:47:17;9.20;1.00
1429;DHT22;708;51.442;7.016;2024-02-23T17:49:44;9.20;1.00
1429;DHT22;708;51.442;7.016;2024-02-23T17:52:12;9.10;1.00
1429;DHT22;708;51.442;7.016;2024-02-23T18:09:26;8.40;1.00
1429;DHT22;708;51.442;7.016;2024-02-23T18:11:53;8.40;1.00
1429;DHT22;708;51.442;7.016;2024-02-23T18:14:21;8.40;1.00
1429;DHT22;708;51.442;7.016;2024-02-23T18:16:48;8.20;1.00
1429;DHT22;708;51.442;7.016;2024-02-23T18:19:15;8.20;1.00
1429;DHT22;708;51.442;7.016;2024-02-23T18:21:42;8.20;1.00
1429;DHT22;708;51.442;7.016;2024-02-23T18:24:09;8.10;1.00
1429;DHT22;708;51.442;7.016;2024-02-23T18:26:36;8.10;1.00
1429;DHT22;708;51.442;7.016;2024-02-23T18:29:03;8.10;1.00
1429;DHT22;708;51.442;7.016;2024-02-23T18:31:31;8.00;1.00
1429;DHT22;708;51.442;7.016;2024-02-23T18:33:59;8.00;1.00
1429;DHT22;708;51.442;7.016;2024-02-23T18:36:26;8.00;1.00
1429;DHT22;708;51.442;7.016;2024-02-23T18:38:52;8.20;1.00
1429;DHT22;708;51.442;7.016;2024-02-23T18:41:19;8.20;1.00
1429;DHT22;708;51.442;7.016;2024-02-23T18:43:46;8.40;1.00
1429;DHT22;708;51.442;7.016;2024-02-23T18:46:13;8.40;1.00
1429;DHT22;708;51.442;7.016;2024-02-23T18:48:41;8.50;1.00
1429;DHT22;708;51.442;7.016;2024-02-23T18:51:08;8.60;1.00
1429;DHT22;708;51.442;7.016;2024-02-23T18:53:35;8.50;1.00
1429;DHT22;708;51.442;7.016;2024-02-23T18:56:02;8.50;1.00
1429;DHT22;708;51.442;7.016;2024-02-23T18:58:31;8.60;1.00
1429;DHT22;708;51.442;7.016;2024-02-23T19:00:57;8.60;1.00
1429;DHT22;708;51.442;7.016;2024-02-23T19:03:24;8.60;1.00
1429;DHT22;708;51.442;7.016;2024-02-23T19:05:53;8.70;1.00
1429;DHT22;708;51.442;7.016;2024-02-23T19:08:20;8.80;1.00
1429;DHT22;708;51.442;7.016;2024-02-23T19:10:47;8.80;1.00
1429;DHT22;708;51.442;7.016;2024-02-23T19:13:14;8.90;1.00
1429;DHT22;708;51.442;7.016;2024-02-23T19:15:40;8.90;1.00
1429;DHT22;708;51.442;7.016;2024-02-23T19:18:09;8.90;1.00
1429;DHT22;708;51.442;7.016;2024-02-23T19:20:36;8.90;1.00
1429;DHT22;708;51.442;7.016;2024-02-23T19:23:04;8.90;1.00
1429;DHT22;708;51.442;7.016;2024-02-23T19:25:31;8.90;1.00
1429;DHT22;708;51.442;7.016;2024-02-23T19:27:58;8.80;1.00
1429;DHT22;708;51.442;7.016;2024-02-23T19:30:25;8.80;1.00
1429;DHT22;708;51.442;7.016;2024-02-23T19:32:52;8.80;1.00
1429;DHT22;708;51.442;7.016;2024-02-23T19:35:19;8.90;1.00
1429;DHT22;708;51.442;7.016;2024-02-23T19:37:45;8.90;1.00
1429;DHT22;708;51.442;7.016;2024-02-23T19:40:14;8.90;1.00
1429;DHT22;708;51.442;7.016;2024-02-23T19:42:47;8.90;1.00
1429;DHT22;708;51.442;7.016;2024-02-23T19:45:13;8.90;1.00
1429;DHT22;708;51.442;7.016;2024-02-23T19:47:40;8.90;1.00
1429;DHT22;708;51.442;7.016;2024-02-23T19:50:08;8.90;1.00
1429;DHT22;708;51.442;7.016;2024-02-23T19:52:34;8.80;1.00
1429;DHT22;708;51.442;7.016;2024-02-23T19:55:01;8.90;1.00
1429;DHT22;708;51.442;7.016;2024-02-23T19:57:29;8.80;1.00
1429;DHT22;708;51.442;7.016;2024-02-23T19:59:56;8.80;1.00
1429;DHT22;708;51.442;7.016;2024-02-23T20:02:24;8.80;1.00
1429;DHT22;708;51.442;7.016;2024-02-23T20:04:51;8.80;1.00
1429;DHT22;708;51.442;7.016;2024-02-23T20:07:18;8.90;1.00
1429;DHT22;708;51.442;7.016;2024-02-23T20:09:46;8.90;1.00
1429;DHT22;708;51.442;7.016;2024-02-23T20:12:13;8.90;1.00
1429;DHT22;708;51.442;7.016;2024-02-23T20:14:41;8.80;1.00
1429;DHT22;708;51.442;7.016;2024-02-23T20:17:08;8.80;1.00
1429;DHT22;708;51.442;7.016;2024-02-23T20:19:35;8.70;1.00
1429;DHT22;708;51.442;7.016;2024-02-23T20:22:01;8.60;1.00
1429;DHT22;708;51.442;7.016;2024-02-23T20:24:28;8.60;1.00
1429;DHT22;708;51.442;7.016;2024-02-23T20:26:55;8.50;1.00
1429;DHT22;708;51.442;7.016;2024-02-23T20:29:22;8.60;1.00
1429;DHT22;708;51.442;7.016;2024-02-23T20:31:50;8.60;1.00
1429;DHT22;708;51.442;7.016;2024-02-23T20:34:17;8.60;1.00
1429;DHT22;708;51.442;7.016;2024-02-23T20:36:44;8.70;1.00
1429;DHT22;708;51.442;7.016;2024-02-23T20:44:06;8.70;1.00
1429;DHT22;708;51.442;7.016;2024-02-23T21:31:06;8.20;1.00
1429;DHT22;708;51.442;7.016;2024-02-23T21:33:33;8.30;1.00
1429;DHT22;708;51.442;7.016;2024-02-23T21:36:00;8.10;1.00
1429;DHT22;708;51.442;7.016;2024-02-23T21:38:27;8.00;1.00
1429;DHT22;708;51.442;7.016;2024-02-23T21:43:29;7.90;1.00
1429;DHT22;708;51.442;7.016;2024-02-23T21:45:56;7.80;1.00
1429;DHT22;708;51.442;7.016;2024-02-23T21:48:23;7.80;1.00
1429;DHT22;708;51.442;7.016;2024-02-23T21:50:50;7.80;1.00
1429;DHT22;708;51.442;7.016;2024-02-23T21:53:16;7.80;1.00
1429;DHT22;708;51.442;7.016;2024-02-23T21:55:43;7.80;1.00
1429;DHT22;708;51.442;7.016;2024-02-23T21:58:11;7.80;1.00
1429;DHT22;708;51.442;7.016;2024-02-23T22:00:38;7.70;1.00
1429;DHT22;708;51.442;7.016;2024-02-23T22:03:05;7.70;1.00
1429;DHT22;708;51.442;7.016;2024-02-23T22:05:32;7.70;1.00
1429;DHT22;708;51.442;7.016;2024-02-23T22:07:59;7.60;1.00
1429;DHT22;708;51.442;7.016;2024-02-23T22:10:25;7.60;1.00
1429;DHT22;708;51.442;7.016;2024-02-23T22:12:52;7.60;1.00
1429;DHT22;708;51.442;7.016;2024-02-23T22:15:20;7.60;1.00
1429;DHT22;708;51.442;7.016;2024-02-23T22:17:47;7.60;1.00
1429;DHT22;708;51.442;7.016;2024-02-23T22:20:14;7.60;1.00
1429;DHT22;708;51.442;7.016;2024-02-23T22:22:41;7.70;1.00
1429;DHT22;708;51.442;7.016;2024-02-23T22:25:08;7.70;1.00
1429;DHT22;708;51.442;7.016;2024-02-23T22:27:38;7.80;1.00
1429;DHT22;708;51.442;7.016;2024-02-23T22:30:06;7.80;1.00
1429;DHT22;708;51.442;7.016;2024-02-23T22:32:36;7.90;1.00
1429;DHT22;708;51.442;7.016;2024-02-23T22:35:03;8.00;1.00
1429;DHT22;708;51.442;7.016;2024-02-23T22:37:30;8.10;1.00
1429;DHT22;708;51.442;7.016;2024-02-23T22:39:58;8.10;1.00
1429;DHT22;708;51.442;7.016;2024-02-23T23:29:30;8.30;1.00
